Time;durP1;ratioP1;P1;durP2;ratioP2;P2;SDS_P1;SDS_P2;PMS_P1;PMS_P2;Temp;Humidity;BMP_temperature;BMP_pressure;BME280_temperature;BME280_humidity;BME280_pressure;Samples;Min_cycle;Max_cycle;Signal;HPM_P1;HPM_P2
2023/12/28 00:02:16;;;;;;;21.33;12.27;;;;;;;5.61;63.03;100559.53;7710045;32;37958;-81
2023/12/28 00:06:32;;;;;;;24.95;14.55;;;;;;;5.22;63.20;100557.94;7710008;32;39399;-81
2023/12/28 00:10:49;;;;;;;20.83;12.82;;;;;;;5.47;62.11;100560.72;7709944;32;39997;-81
2023/12/28 00:15:05;;;;;;;23.92;13.50;;;;;;;5.61;61.49;100546.03;7709545;32;38040;-81
2023/12/28 00:19:22;;;;;;;26.17;14.15;;;;;;;5.20;62.62;100577.09;7709841;32;38017;-81
2023/12/28 00:23:38;;;;;;;21.37;13.57;;;;;;;5.26;62.22;100572.72;7709607;32;40088;-80
2023/12/28 00:27:55;;;;;;;29.12;14.98;;;;;;;5.23;61.86;100575.84;7709107;32;39988;-81
2023/12/28 00:32:12;;;;;;;28.77;15.38;;;;;;;5.36;61.57;100569.50;7709246;32;38681;-81
2023/12/28 00:36:28;;;;;;;28.62;14.43;;;;;;;5.54;61.61;100577.72;7709196;32;37088;-81
2023/12/28 00:40:44;;;;;;;27.58;15.15;;;;;;;5.38;62.13;100579.06;7708985;32;40080;-81
2023/12/28 00:45:02;;;;;;;30.33;15.90;;;;;;;5.46;62.37;100570.66;7709021;32;40053;-81
2023/12/28 00:49:18;;;;;;;25.40;14.68;;;;;;;5.55;62.19;100576.66;7708868;32;37688;-81
2023/12/28 00:53:35;;;;;;;27.65;16.15;;;;;;;5.49;62.52;100585.66;7708790;32;37276;-80
2023/12/28 00:57:51;;;;;;;24.55;15.02;;;;;;;5.60;62.40;100581.41;7708578;32;39409;-81
2023/12/28 01:02:08;;;;;;;26.05;15.05;;;;;;;5.53;62.07;100592.25;7709503;32;40774;-81
2023/12/28 01:06:28;;;;;;;27.85;15.48;;;;;;;5.45;62.22;100576.31;7712498;32;38407;-81
2023/12/28 01:10:45;;;;;;;24.48;14.98;;;;;;;5.29;63.60;100588.47;7712317;32;37498;-81
2023/12/28 01:15:01;;;;;;;25.58;13.40;;;;;;;5.57;62.74;100588.09;7712425;32;39367;-81
2023/12/28 01:19:17;;;;;;;22.35;12.93;;;;;;;5.65;61.69;100579.69;7712324;32;40798;-81
2023/12/28 01:23:34;;;;;;;25.52;13.98;;;;;;;6.00;60.13;100587.38;7712157;32;38788;-81
2023/12/28 01:27:50;;;;;;;25.77;14.48;;;;;;;5.68;61.63;100583.84;7711968;32;38316;-81
2023/12/28 01:32:07;;;;;;;25.73;14.73;;;;;;;5.62;61.07;100572.03;7712296;32;40038;-81
2023/12/28 01:36:23;;;;;;;21.05;14.23;;;;;;;5.79;60.62;100560.66;7712187;32;40927;-81
2023/12/28 01:40:45;;;;;;;26.50;14.73;;;;;;;5.71;61.31;100550.94;7711982;32;37954;-82
2023/12/28 01:45:02;;;;;;;23.87;14.13;;;;;;;5.74;61.40;100549.66;7712412;32;37312;-81
2023/12/28 01:49:19;;;;;;;24.75;13.85;;;;;;;5.68;61.22;100575.72;7712083;32;39567;-81
2023/12/28 01:53:36;;;;;;;24.60;14.48;;;;;;;5.59;61.47;100558.94;7711997;32;40274;-81
2023/12/28 01:57:53;;;;;;;22.77;15.15;;;;;;;5.42;61.29;100555.94;7711539;32;38615;-81
2023/12/28 02:02:09;;;;;;;26.62;14.38;;;;;;;5.50;60.90;100559.41;7711876;32;37267;-81
2023/12/28 02:06:25;;;;;;;26.00;14.25;;;;;;;5.56;60.54;100548.56;7723108;32;39318;-81
2023/12/28 02:10:42;;;;;;;30.58;15.75;;;;;;;5.47;61.58;100544.47;7711569;32;39701;-81
2023/12/28 02:14:59;;;;;;;25.27;14.77;;;;;;;5.55;61.03;100535.25;7710834;32;38905;-81
2023/12/28 02:19:54;;;;;;;31.55;15.40;;;;;;;5.67;61.23;100538.87;7711643;32;37192;-80
2023/12/28 02:24:10;;;;;;;27.25;15.27;;;;;;;5.31;61.53;100535.00;7711147;32;39193;-81
2023/12/28 02:28:27;;;;;;;27.65;14.15;;;;;;;5.55;61.67;100529.84;7711661;32;39859;-81
2023/12/28 02:32:58;;;;;;;23.58;13.93;;;;;;;5.58;60.96;100519.41;7710330;32;38777;-81
2023/12/28 02:37:16;;;;;;;26.25;14.38;;;;;;;5.47;60.89;100520.12;7711482;32;37308;-81
2023/12/28 02:41:33;;;;;;;25.77;15.10;;;;;;;5.68;60.60;100499.16;7710436;32;39278;-81
2023/12/28 02:45:49;;;;;;;27.98;16.10;;;;;;;5.51;61.98;100512.41;7711471;32;39875;-80
2023/12/28 02:50:07;;;;;;;24.77;15.60;;;;;;;5.21;63.48;100507.66;7735506;32;38678;-80
2023/12/28 02:54:23;;;;;;;24.42;14.02;;;;;;;5.30;63.38;100511.72;7736975;32;38239;-80
2023/12/28 02:58:39;;;;;;;25.00;13.77;;;;;;;5.41;63.02;100512.91;7734323;32;40143;-80
2023/12/28 03:02:56;;;;;;;21.20;12.25;;;;;;;5.55;62.70;100508.19;7711081;32;40114;-80
2023/12/28 03:07:12;;;;;;;24.92;13.15;;;;;;;5.55;62.40;100506.31;7710848;32;37777;-80
2023/12/28 03:11:28;;;;;;;25.48;12.50;;;;;;;5.43;62.38;100502.69;7711263;32;37673;-81
2023/12/28 03:15:45;;;;;;;20.55;11.63;;;;;;;5.45;61.99;100500.59;7720332;32;40036;-82
2023/12/28 03:20:01;;;;;;;17.77;10.63;;;;;;;5.41;62.23;100507.47;7710846;32;40839;-81
2023/12/28 03:24:17;;;;;;;16.00;10.60;;;;;;;5.29;62.64;100488.44;7710845;32;37977;-81
2023/12/28 03:28:34;;;;;;;21.12;12.18;;;;;;;5.48;61.91;100481.22;7710829;32;37312;-82
2023/12/28 03:32:50;;;;;;;23.75;12.43;;;;;;;5.41;62.27;100480.44;7710683;32;39169;-82
2023/12/28 03:37:07;;;;;;;22.10;11.85;;;;;;;5.39;62.26;100472.53;7710598;32;39815;-82
2023/12/28 03:41:23;;;;;;;21.80;13.05;;;;;;;5.50;62.21;100471.00;7710596;32;38061;-82
2023/12/28 03:45:39;;;;;;;27.05;14.50;;;;;;;5.45;62.33;100457.34;7710059;32;37107;-81
2023/12/28 03:49:57;;;;;;;26.92;12.40;;;;;;;5.47;62.27;100441.72;7710396;32;40143;-81
2023/12/28 03:54:16;;;;;;;24.77;14.23;;;;;;;5.25;62.85;100442.09;7710262;32;39911;-81
2023/12/28 03:58:32;;;;;;;22.23;11.85;;;;;;;5.30;62.75;100441.44;7708938;32;37811;-81
2023/12/28 04:02:48;;;;;;;20.35;12.65;;;;;;;5.46;62.17;100440.84;7710171;32;36898;-82
2023/12/28 04:07:07;;;;;;;23.67;14.85;;;;;;;5.05;63.13;100425.19;7709826;32;39059;-81
2023/12/28 04:11:24;;;;;;;24.95;12.65;;;;;;;5.02;63.58;100417.56;7709235;32;39708;-81
2023/12/28 04:15:43;;;;;;;21.87;11.43;;;;;;;4.76;64.58;100426.66;7709473;32;37854;-81
2023/12/28 04:19:59;;;;;;;22.37;11.20;;;;;;;5.22;62.66;100412.78;7709758;32;37484;-80
2023/12/28 04:24:15;;;;;;;15.35;9.45;;;;;;;5.02;62.77;100418.38;7709622;32;39287;-81
2023/12/28 04:28:34;;;;;;;20.98;10.50;;;;;;;5.21;62.78;100411.16;7709495;32;39948;-81
2023/12/28 04:32:50;;;;;;;17.62;9.80;;;;;;;5.06;63.03;100395.25;7709369;32;38136;-81
2023/12/28 04:37:06;;;;;;;18.62;10.63;;;;;;;5.21;62.69;100394.94;7710075;32;37186;-82
2023/12/28 04:41:23;;;;;;;15.60;9.60;;;;;;;5.19;62.65;100396.19;7712617;32;39422;-82
2023/12/28 04:45:39;;;;;;;22.83;12.35;;;;;;;5.14;62.90;100383.34;7712885;32;40876;-81
2023/12/28 04:49:56;;;;;;;25.48;14.00;;;;;;;4.85;63.85;100414.56;7712704;32;37839;-82
2023/12/28 04:54:12;;;;;;;24.60;13.00;;;;;;;5.00;63.76;100430.44;7712781;32;36952;-82
2023/12/28 04:58:29;;;;;;;23.35;11.75;;;;;;;4.99;63.71;100424.22;7712551;32;39386;-82
2023/12/28 05:02:45;;;;;;;19.67;10.48;;;;;;;4.94;64.04;100404.31;7712565;32;39983;-82
2023/12/28 05:07:01;;;;;;;17.83;10.73;;;;;;;4.69;64.73;100394.28;7712589;32;38038;-82
2023/12/28 05:11:18;;;;;;;22.95;12.68;;;;;;;5.07;63.51;100409.59;7712145;32;37292;-82
2023/12/28 05:15:34;;;;;;;25.17;13.15;;;;;;;4.23;66.49;100430.50;7712359;32;39397;-82
2023/12/28 05:19:50;;;;;;;21.75;11.93;;;;;;;4.62;64.84;100434.00;7712401;32;39696;-82
2023/12/28 05:24:07;;;;;;;21.52;11.88;;;;;;;4.91;63.50;100443.38;7712354;32;39356;-81
2023/12/28 05:28:23;;;;;;;21.58;11.52;;;;;;;4.91;63.66;100450.66;7712368;32;37250;-82
2023/12/28 05:32:40;;;;;;;21.35;13.13;;;;;;;4.99;63.01;100442.31;7712299;32;39279;-82
2023/12/28 05:36:56;;;;;;;22.00;12.48;;;;;;;4.91;62.89;100442.56;7712023;32;40625;-83
2023/12/28 05:41:13;;;;;;;20.67;12.32;;;;;;;4.91;62.22;100445.28;7711560;32;38081;-82
2023/12/28 05:45:29;;;;;;;21.55;11.75;;;;;;;4.86;62.53;100449.47;7712144;32;37486;-81
2023/12/28 05:49:46;;;;;;;21.98;12.77;;;;;;;5.18;61.79;100444.03;7711222;32;39362;-82
2023/12/28 05:54:03;;;;;;;19.20;11.23;;;;;;;4.96;62.12;100440.03;7712066;32;40002;-82
2023/12/28 05:58:22;;;;;;;21.95;10.60;;;;;;;4.88;61.94;100444.66;7711843;32;38826;-81
2023/12/28 06:02:38;;;;;;;21.27;10.77;;;;;;;4.97;61.79;100452.50;7711926;32;37742;-81
2023/12/28 06:06:55;;;;;;;20.27;10.02;;;;;;;5.14;60.79;100450.94;7712007;32;39459;-81
2023/12/28 06:11:11;;;;;;;18.65;11.20;;;;;;;4.93;61.08;100437.75;7711589;32;40907;-81
2023/12/28 06:15:28;;;;;;;19.37;10.45;;;;;;;4.65;62.03;100439.81;7711629;32;38627;-81
2023/12/28 06:19:45;;;;;;;20.73;11.57;;;;;;;4.70;61.35;100448.09;7711689;32;37958;-81
2023/12/28 06:24:01;;;;;;;20.92;11.43;;;;;;;4.70;62.53;100445.38;7711659;32;40241;-81
2023/12/28 06:28:18;;;;;;;20.12;11.68;;;;;;;4.65;62.02;100449.78;7711424;32;39950;-81
2023/12/28 06:32:34;;;;;;;22.17;12.32;;;;;;;4.62;62.49;100461.03;7710389;32;38019;-81
2023/12/28 06:36:50;;;;;;;19.20;11.85;;;;;;;4.87;61.02;100459.22;7711664;32;36920;-82
2023/12/28 06:41:13;;;;;;;21.30;11.73;;;;;;;4.72;61.17;100455.97;7711484;32;40262;-82
2023/12/28 06:45:30;;;;;;;18.70;11.27;;;;;;;4.66;60.92;100463.06;7697914;32;40046;-81
2023/12/28 06:49:46;;;;;;;20.05;11.30;;;;;;;4.67;60.87;100463.91;7711397;32;37759;-82
2023/12/28 06:54:02;;;;;;;21.90;11.05;;;;;;;4.72;62.17;100461.38;7711402;32;37944;-81
2023/12/28 06:58:19;;;;;;;18.92;10.70;;;;;;;4.63;63.21;100479.72;7711141;32;39181;-83
2023/12/28 07:02:35;;;;;;;20.92;11.63;;;;;;;4.78;62.73;100487.53;7710851;32;40971;-82
2023/12/28 07:06:51;;;;;;;21.75;12.70;;;;;;;4.92;61.90;100490.16;7710928;32;38782;-83
2023/12/28 07:11:11;;;;;;;23.38;12.23;;;;;;;4.56;63.28;100492.44;7711184;32;38693;-84
2023/12/28 07:15:27;;;;;;;21.08;9.38;;;;;;;4.57;63.47;100490.53;7711075;32;39433;-83
2023/12/28 07:19:44;;;;;;;17.62;9.98;;;;;;;4.72;63.01;100493.78;7711034;32;40855;-87
2023/12/28 07:24:00;;;;;;;18.85;11.82;;;;;;;4.71;62.70;100497.56;7722234;32;37754;-83
2023/12/28 07:28:17;;;;;;;18.17;11.93;;;;;;;4.70;63.04;100509.41;7710914;32;37937;-83
2023/12/28 07:32:33;;;;;;;27.08;14.32;;;;;;;4.92;62.86;100498.28;7710843;32;39504;-83
2023/12/28 07:36:49;;;;;;;23.67;13.77;;;;;;;4.92;63.13;100492.88;7710666;32;39886;-84
2023/12/28 07:41:06;;;;;;;32.83;18.75;;;;;;;4.95;62.99;100487.00;7710324;32;38796;-83
2023/12/28 07:45:24;;;;;;;28.20;16.50;;;;;;;5.20;62.66;100490.59;7710718;32;38551;-83
2023/12/28 07:49:40;;;;;;;25.88;15.18;;;;;;;5.41;62.44;100480.44;7709322;32;38289;-84
2023/12/28 07:53:57;;;;;;;24.25;13.85;;;;;;;5.57;62.47;100484.47;7710324;32;40003;-83
2023/12/28 07:58:14;;;;;;;24.77;13.07;;;;;;;5.51;62.86;100480.78;7710125;32;38792;-83
2023/12/28 08:02:31;;;;;;;23.10;13.55;;;;;;;5.53;63.07;100473.25;7709870;32;37526;-84
2023/12/28 08:06:47;;;;;;;25.77;14.13;;;;;;;5.62;62.98;100482.75;7710159;32;40255;-83
2023/12/28 08:11:03;;;;;;;24.12;12.37;;;;;;;5.76;63.01;100488.03;7709791;32;40735;-82
2023/12/28 08:15:20;;;;;;;26.67;14.57;;;;;;;5.83;63.18;100489.62;7712914;32;38068;-85
2023/12/28 08:19:36;;;;;;;21.70;12.95;;;;;;;5.16;64.42;100489.38;7712648;32;37326;-82
2023/12/28 08:23:52;;;;;;;26.42;13.70;;;;;;;5.80;63.25;100486.56;7713251;32;39822;-82
2023/12/28 08:28:09;;;;;;;25.20;13.68;;;;;;;5.86;63.34;100496.47;7713007;32;40099;-81
2023/12/28 08:32:25;;;;;;;24.37;12.82;;;;;;;5.44;64.73;100491.63;7712906;32;38135;-81
2023/12/28 08:36:41;;;;;;;27.13;14.55;;;;;;;5.79;63.27;100482.19;7712994;32;38362;-83
2023/12/28 08:40:58;;;;;;;24.55;12.40;;;;;;;5.99;63.55;100488.25;7713012;32;40078;-83
2023/12/28 08:45:14;;;;;;;20.27;11.32;;;;;;;6.42;62.37;100478.41;7712723;32;39783;-82
2023/12/28 08:49:30;;;;;;;26.77;14.45;;;;;;;6.73;61.25;100488.19;7712586;32;38022;-82
2023/12/28 08:53:47;;;;;;;27.15;15.35;;;;;;;6.83;63.51;100486.81;7712666;32;37310;-82
2023/12/28 08:58:03;;;;;;;22.23;10.95;;;;;;;6.74;60.50;100489.03;7712697;32;39379;-73
2023/12/28 09:02:20;;;;;;;23.62;15.98;;;;;;;6.69;67.36;100491.59;7712490;32;40840;-81
2023/12/28 09:06:36;;;;;;;28.67;16.25;;;;;;;7.00;61.17;100478.88;7712234;32;38756;-82
2023/12/28 09:10:52;;;;;;;28.65;15.77;;;;;;;7.38;59.60;100486.62;7712190;32;36959;-79
2023/12/28 09:15:09;;;;;;;23.80;15.25;;;;;;;7.60;58.51;100483.34;7711973;32;39040;-79
2023/12/28 09:19:25;;;;;;;23.50;13.80;;;;;;;7.75;58.04;100480.97;7726635;32;39946;-79
2023/12/28 09:23:41;;;;;;;24.83;13.98;;;;;;;7.81;59.20;100473.78;7737513;32;37922;-82
2023/12/28 09:27:58;;;;;;;23.02;13.62;;;;;;;7.26;60.60;100474.91;7739138;32;37726;-80
2023/12/28 09:32:16;;;;;;;18.48;12.20;;;;;;;7.47;59.42;100460.81;7738691;32;39361;-80
2023/12/28 09:36:32;;;;;;;22.75;12.80;;;;;;;7.85;57.38;100454.06;7718255;32;39955;-81
2023/12/28 09:40:52;;;;;;;20.02;10.55;;;;;;;8.23;57.10;100430.97;7712182;32;38852;-80
2023/12/28 09:45:09;;;;;;;23.17;12.32;;;;;;;8.86;55.25;100433.00;7711844;32;36954;-81
2023/12/28 09:49:26;;;;;;;18.48;10.82;;;;;;;9.24;53.78;100413.25;7711850;32;39406;-91
2023/12/28 09:53:43;;;;;;;19.40;10.65;;;;;;;9.47;53.05;100411.41;7711716;32;39653;-88
2023/12/28 09:58:00;;;;;;;16.23;9.35;;;;;;;9.62;51.94;100402.66;7710112;32;38766;-86
2023/12/28 10:02:17;;;;;;;18.70;10.25;;;;;;;10.09;50.46;100403.03;7711881;32;37014;-86
2023/12/28 10:06:33;;;;;;;21.02;11.68;;;;;;;10.40;49.88;100394.41;7732003;32;40158;-86
2023/12/28 10:10:54;;;;;;;18.12;9.90;;;;;;;10.85;48.04;100394.06;7738244;32;39915;-87
2023/12/28 10:15:10;;;;;;;17.02;10.15;;;;;;;10.77;48.68;100380.06;7722692;32;37802;-86
2023/12/28 10:19:26;;;;;;;19.77;10.15;;;;;;;11.13;46.42;100378.47;7694664;32;36898;-86
2023/12/28 10:23:43;;;;;;;16.62;9.80;;;;;;;11.16;45.98;100382.56;7684858;32;39548;-87
2023/12/28 10:28:06;;;;;;;19.40;10.23;;;;;;;11.39;46.35;100368.53;7696401;32;40152;-87
2023/12/28 10:32:24;;;;;;;18.60;10.32;;;;;;;11.60;45.91;100361.28;7696140;32;37866;-85
2023/12/28 10:36:42;;;;;;;20.17;10.20;;;;;;;11.76;45.73;100359.47;7682937;32;37172;-85
2023/12/28 10:40:58;;;;;;;18.40;10.80;;;;;;;11.45;46.25;100362.03;7684358;32;39854;-87
2023/12/28 10:45:16;;;;;;;20.52;10.95;;;;;;;11.35;45.98;100358.41;7696035;32;40837;-87
2023/12/28 10:49:35;;;;;;;16.08;9.95;;;;;;;11.43;46.56;100349.72;7684750;32;38824;-86
2023/12/28 10:54:07;;;;;;;20.27;10.75;;;;;;;11.15;47.42;100345.44;7684570;32;37245;-88
2023/12/28 10:58:37;;;;;;;21.40;10.55;;;;;;;11.38;46.97;100330.59;7684779;32;39491;-85
2023/12/28 11:02:58;;;;;;;21.15;11.15;;;;;;;11.18;47.95;100336.75;7684422;32;40204;-85
2023/12/28 11:07:17;;;;;;;18.15;11.32;;;;;;;11.36;46.68;100322.66;7684651;32;38800;-91
2023/12/28 11:11:34;;;;;;;21.40;11.32;;;;;;;11.86;46.05;100298.59;7684408;32;37908;-90
2023/12/28 11:15:51;;;;;;;20.33;11.45;;;;;;;11.63;46.27;100297.94;7722373;32;39176;-86
2023/12/28 11:20:09;;;;;;;18.92;10.60;;;;;;;11.42;47.02;100298.94;7722445;32;39859;-89
2023/12/28 11:24:28;;;;;;;20.45;11.63;;;;;;;11.21;48.38;100287.91;7711147;32;37443;-89
2023/12/28 11:28:44;;;;;;;20.95;11.68;;;;;;;11.38;47.22;100286.91;7710976;32;37493;-90
2023/12/28 11:33:00;;;;;;;23.87;11.05;;;;;;;10.68;48.28;100287.00;7710802;32;39020;-88
2023/12/28 11:37:20;;;;;;;20.25;10.82;;;;;;;11.00;47.21;100277.94;7709232;32;40008;-88
2023/12/28 11:41:37;;;;;;;22.08;12.27;;;;;;;11.28;46.69;100276.78;7710624;32;37062;-85
2023/12/28 11:45:55;;;;;;;23.15;11.65;;;;;;;11.50;46.83;100267.59;7696070;32;37300;-86
2023/12/28 11:50:12;;;;;;;26.10;12.02;;;;;;;11.85;45.18;100255.97;7696580;32;39034;-84
2023/12/28 11:54:29;;;;;;;19.67;11.52;;;;;;;11.57;45.36;100252.62;7707175;32;40093;-86
2023/12/28 11:58:47;;;;;;;20.70;11.88;;;;;;;12.23;44.33;100242.97;7693312;32;38182;-87
2023/12/28 12:03:04;;;;;;;20.12;11.52;;;;;;;12.32;44.26;100238.59;7683544;32;36277;-87
2023/12/28 12:07:21;;;;;;;20.88;11.55;;;;;;;12.81;43.73;100231.72;7713820;32;39980;-85
2023/12/28 12:11:38;;;;;;;22.70;11.50;;;;;;;12.11;43.52;100240.50;7710097;32;40650;-86
2023/12/28 12:15:54;;;;;;;21.50;11.75;;;;;;;12.01;44.72;100245.94;7735336;32;38774;-86
2023/12/28 12:20:14;;;;;;;20.30;11.00;;;;;;;12.12;45.32;100224.91;7736401;32;37915;-84
2023/12/28 12:24:31;;;;;;;18.35;11.02;;;;;;;12.75;43.66;100209.03;7736458;32;40138;-87
2023/12/28 12:28:48;;;;;;;22.87;12.32;;;;;;;13.23;42.62;100219.59;7736339;32;39949;-88
2023/12/28 12:33:05;;;;;;;21.08;10.48;;;;;;;13.56;41.56;100214.56;7736069;32;38109;-87
2023/12/28 12:37:21;;;;;;;19.30;11.30;;;;;;;14.26;40.38;100208.09;7734702;32;37124;-88
2023/12/28 12:41:38;;;;;;;21.52;11.73;;;;;;;14.03;40.04;100223.34;7726575;32;39381;-86
2023/12/28 12:45:54;;;;;;;21.85;12.30;;;;;;;13.96;40.94;100223.66;7709282;32;40123;-87
2023/12/28 12:50:10;;;;;;;30.23;12.05;;;;;;;13.42;41.00;100210.78;7708882;32;37741;-88
2023/12/28 12:54:28;;;;;;;21.85;12.10;;;;;;;12.68;42.65;100224.91;7708868;32;37675;-88
2023/12/28 12:58:45;;;;;;;21.92;12.57;;;;;;;12.76;43.39;100221.62;7718915;32;40161;-88
2023/12/28 13:03:01;;;;;;;21.90;12.90;;;;;;;13.10;41.78;100210.03;7739053;32;40840;-89
2023/12/28 13:07:18;;;;;;;22.67;13.05;;;;;;;13.53;41.38;100206.91;7738754;32;37758;-88
2023/12/28 13:11:35;;;;;;;27.00;13.10;;;;;;;14.11;40.09;100203.56;7739246;32;36869;-83
2023/12/28 13:15:51;;;;;;;23.40;14.25;;;;;;;14.87;38.74;100193.03;7739310;32;39383;-88
2023/12/28 13:20:08;;;;;;;22.20;13.60;;;;;;;14.99;38.32;100187.97;7739174;32;40802;-87
2023/12/28 13:24:24;;;;;;;24.70;14.05;;;;;;;15.27;37.30;100185.44;7739055;32;38517;-87
2023/12/28 13:28:42;;;;;;;21.45;12.68;;;;;;;15.85;36.49;100189.09;7739081;32;37134;-86
2023/12/28 13:32:59;;;;;;;20.48;12.73;;;;;;;16.02;37.72;100189.37;7739087;32;39866;-85
2023/12/28 13:37:16;;;;;;;24.58;13.18;;;;;;;18.10;33.32;100172.16;7739046;32;40782;-86
2023/12/28 13:41:32;;;;;;;25.05;13.38;;;;;;;20.82;28.76;100172.47;7738963;32;38279;-83
2023/12/28 13:45:49;;;;;;;21.65;12.93;;;;;;;22.57;24.61;100174.06;7738979;32;38000;-85
2023/12/28 13:50:06;;;;;;;24.27;14.07;;;;;;;23.43;23.49;100171.38;7738888;32;39238;-86
2023/12/28 13:54:23;;;;;;;24.40;14.02;;;;;;;23.39;23.63;100173.22;7738714;32;40605;-87
2023/12/28 13:58:40;;;;;;;24.95;15.23;;;;;;;23.42;23.28;100189.19;7738490;32;38002;-86
2023/12/28 14:02:56;;;;;;;23.80;15.10;;;;;;;21.92;25.15;100202.22;7738891;32;37300;-86
2023/12/28 14:07:13;;;;;;;27.20;15.25;;;;;;;23.77;23.01;100188.72;7728205;32;39425;-85
2023/12/28 14:11:29;;;;;;;25.00;16.40;;;;;;;24.05;22.54;100187.97;7710585;32;40684;-85
2023/12/28 14:15:46;;;;;;;26.70;15.05;;;;;;;24.11;22.30;100186.53;7713724;32;38124;-85
2023/12/28 14:20:03;;;;;;;26.10;15.70;;;;;;;24.50;21.84;100175.69;7710980;32;37290;-85
2023/12/28 14:24:20;;;;;;;24.60;15.07;;;;;;;25.23;20.92;100162.41;7719595;32;39238;-85
2023/12/28 14:28:36;;;;;;;25.52;15.40;;;;;;;24.99;21.09;100164.25;7720392;32;39590;-84
2023/12/28 14:32:53;;;;;;;25.75;15.60;;;;;;;23.71;22.72;100162.28;7738159;32;38806;-85
2023/12/28 14:37:09;;;;;;;23.80;14.60;;;;;;;22.64;24.17;100177.06;7726745;32;37009;-86
2023/12/28 14:41:27;;;;;;;31.70;17.95;;;;;;;21.03;26.20;100174.53;7732401;32;39386;-85
2023/12/28 14:45:45;;;;;;;26.70;17.98;;;;;;;19.92;27.76;100174.06;7730138;32;40865;-86
2023/12/28 14:50:05;;;;;;;30.77;17.52;;;;;;;17.82;31.23;100199.81;7713409;32;38043;-85
2023/12/28 14:54:23;;;;;;;26.40;16.00;;;;;;;16.34;34.02;100209.78;7710615;32;38099;-85
2023/12/28 14:58:45;;;;;;;30.83;17.62;;;;;;;15.03;36.55;100223.87;7710307;32;39104;-84
2023/12/28 15:03:03;;;;;;;27.17;17.00;;;;;;;14.20;38.40;100234.75;7728803;32;40804;-83
2023/12/28 15:07:20;;;;;;;28.35;15.60;;;;;;;13.37;40.37;100243.69;7710861;32;38896;-86
2023/12/28 15:11:37;;;;;;;26.45;16.17;;;;;;;13.07;40.60;100229.78;7709494;32;37126;-87
2023/12/28 15:16:04;;;;;;;25.73;15.18;;;;;;;12.56;41.85;100229.84;7710486;32;40169;-88
2023/12/28 15:20:20;;;;;;;27.17;15.85;;;;;;;11.96;43.27;100219.41;7710139;32;40069;-87
2023/12/28 15:24:37;;;;;;;27.10;16.15;;;;;;;11.50;44.40;100235.62;7709381;32;37991;-87
2023/12/28 15:28:53;;;;;;;28.05;16.08;;;;;;;11.43;44.76;100224.13;7710545;32;37141;-87
2023/12/28 15:33:10;;;;;;;24.42;14.68;;;;;;;10.85;45.90;100224.94;7708155;32;40099;-86
2023/12/28 15:37:26;;;;;;;29.23;16.10;;;;;;;10.39;47.01;100219.16;7696789;32;39559;-88
2023/12/28 15:41:43;;;;;;;29.48;17.10;;;;;;;10.23;47.70;100228.25;7711246;32;38675;-84
2023/12/28 15:45:59;;;;;;;32.90;16.27;;;;;;;9.80;49.21;100230.00;7709660;32;36925;-86
2023/12/28 15:50:16;;;;;;;24.87;15.20;;;;;;;9.82;48.84;100234.09;7718860;32;39279;-87
2023/12/28 15:54:33;;;;;;;28.35;15.55;;;;;;;9.62;49.38;100231.97;7729236;32;40561;-87
2023/12/28 15:58:49;;;;;;;31.20;16.98;;;;;;;9.49;49.73;100235.91;7736878;32;38828;-87
2023/12/28 16:03:05;;;;;;;31.65;19.35;;;;;;;9.21;50.81;100245.09;7736848;32;37883;-87
2023/12/28 16:07:22;;;;;;;35.47;19.70;;;;;;;9.09;51.26;100241.63;7713518;32;40197;-86
2023/12/28 16:11:38;;;;;;;32.60;16.92;;;;;;;9.09;51.56;100228.03;7709479;32;40527;-86
2023/12/28 16:15:55;;;;;;;27.48;16.77;;;;;;;8.58;52.04;100220.78;7709503;32;37634;-86
2023/12/28 16:20:13;;;;;;;32.03;17.50;;;;;;;8.68;51.53;100224.75;7709478;32;37933;-87
2023/12/28 16:24:29;;;;;;;41.85;22.20;;;;;;;8.31;53.22;100239.59;7709611;32;39314;-87
2023/12/28 16:28:45;;;;;;;37.40;20.17;;;;;;;8.16;53.16;100244.75;7709032;32;39955;-88
2023/12/28 16:33:02;;;;;;;26.15;15.13;;;;;;;8.02;53.48;100242.38;7709903;32;38818;-89
2023/12/28 16:37:18;;;;;;;29.63;14.55;;;;;;;8.02;53.73;100242.38;7713005;32;36937;-87
2023/12/28 16:41:37;;;;;;;27.80;15.45;;;;;;;8.01;53.87;100243.44;7712913;32;39017;-88
2023/12/28 16:45:53;;;;;;;28.87;14.60;;;;;;;7.71;54.92;100246.41;7712837;32;39902;-87
2023/12/28 16:50:10;;;;;;;28.02;14.80;;;;;;;7.57;55.14;100236.87;7710235;32;38804;-87
2023/12/28 16:54:26;;;;;;;27.70;15.90;;;;;;;7.29;55.84;100238.50;7711946;32;37764;-88
2023/12/28 16:58:43;;;;;;;29.27;16.62;;;;;;;7.43;55.54;100242.56;7712324;32;39412;-88
2023/12/28 17:02:59;;;;;;;31.20;17.67;;;;;;;7.37;55.67;100248.97;7712351;32;40862;-88
2023/12/28 17:07:15;;;;;;;27.48;15.50;;;;;;;7.45;55.14;100245.91;7712548;32;38699;-88
2023/12/28 17:11:32;;;;;;;28.20;15.35;;;;;;;7.33;55.06;100236.97;7712740;32;38162;-88
2023/12/28 17:15:50;;;;;;;31.30;17.67;;;;;;;7.10;55.38;100232.38;7712541;32;39825;-88
2023/12/28 17:20:08;;;;;;;30.02;16.65;;;;;;;7.12;56.16;100233.81;7712518;32;40448;-88
2023/12/28 17:24:27;;;;;;;30.27;16.35;;;;;;;6.96;56.03;100232.63;7712378;32;37825;-88
2023/12/28 17:28:49;;;;;;;28.42;16.25;;;;;;;7.00;55.93;100232.97;7712369;32;36222;-88
2023/12/28 17:33:07;;;;;;;27.05;15.45;;;;;;;7.06;55.67;100236.66;7712374;32;38595;-88
2023/12/28 17:37:24;;;;;;;27.52;15.15;;;;;;;7.00;55.74;100243.81;7710913;32;39908;-88
2023/12/28 17:41:42;;;;;;;24.55;13.10;;;;;;;6.86;57.42;100253.28;7712073;32;37756;-88
2023/12/28 17:46:18;;;;;;;27.05;14.73;;;;;;;6.89;57.12;100244.69;7712126;32;37200;-88
2023/12/28 17:50:37;;;;;;;37.35;16.62;;;;;;;6.97;57.27;100263.31;7712206;32;39341;-87
2023/12/28 17:54:53;;;;;;;27.17;15.13;;;;;;;6.87;58.08;100261.16;7712040;32;38901;-88
2023/12/28 17:59:10;;;;;;;28.10;15.07;;;;;;;6.93;57.06;100262.09;7711904;32;37994;-87
2023/12/28 18:03:27;;;;;;;31.67;17.55;;;;;;;6.95;56.51;100257.25;7711903;32;37964;-88
2023/12/28 18:07:44;;;;;;;34.05;16.40;;;;;;;6.75;56.78;100258.44;7711914;32;39422;-88
2023/12/28 18:12:00;;;;;;;22.65;14.68;;;;;;;6.70;56.75;100261.03;7711626;32;40175;-88
2023/12/28 18:16:20;;;;;;;30.45;14.55;;;;;;;6.59;57.74;100275.41;7711887;32;37608;-88
2023/12/28 18:20:38;;;;;;;22.27;13.07;;;;;;;6.48;58.26;100281.63;7711937;32;37218;-87
2023/12/28 18:24:54;;;;;;;21.70;12.95;;;;;;;6.58;57.64;100284.59;7711716;32;39375;-87
2023/12/28 18:29:10;;;;;;;28.87;14.50;;;;;;;6.84;56.85;100277.91;7711709;32;40581;-88
2023/12/28 18:33:27;;;;;;;24.70;15.30;;;;;;;6.35;57.92;100280.78;7711531;32;37608;-88
2023/12/28 18:37:43;;;;;;;28.58;15.27;;;;;;;6.04;58.96;100272.91;7711578;32;38236;-89
2023/12/28 18:42:00;;;;;;;25.48;14.40;;;;;;;6.19;58.58;100270.59;7711507;32;40017;-88
2023/12/28 18:46:16;;;;;;;28.20;15.63;;;;;;;6.27;58.50;100258.63;7711659;32;39967;-88
2023/12/28 18:50:32;;;;;;;30.17;16.30;;;;;;;6.22;59.67;100264.72;7711373;32;37615;-87
2023/12/28 18:54:49;;;;;;;34.10;18.67;;;;;;;5.97;59.46;100262.19;7711414;32;37247;-88
2023/12/28 18:59:05;;;;;;;31.17;16.75;;;;;;;5.88;59.74;100264.37;7710939;32;39331;-88
2023/12/28 19:03:22;;;;;;;37.22;20.42;;;;;;;5.91;59.09;100273.88;7711277;32;39959;-88
2023/12/28 19:07:39;;;;;;;30.90;17.67;;;;;;;5.89;59.06;100260.59;7711253;32;38148;-87
2023/12/28 19:11:55;;;;;;;33.10;18.05;;;;;;;5.79;58.73;100253.00;7711044;32;37424;-88
2023/12/28 19:16:18;;;;;;;27.58;16.73;;;;;;;5.69;59.03;100241.09;7711106;32;40155;-88
2023/12/28 19:20:35;;;;;;;30.42;15.57;;;;;;;5.80;58.56;100234.91;7711086;32;40931;-88
2023/12/28 19:24:51;;;;;;;25.95;14.82;;;;;;;5.83;58.40;100234.47;7710805;32;37960;-88
2023/12/28 19:29:08;;;;;;;28.77;15.73;;;;;;;5.91;58.35;100228.69;7710969;32;38028;-87
2023/12/28 19:33:24;;;;;;;28.00;15.68;;;;;;;6.01;57.54;100214.66;7711030;32;39831;-88
2023/12/28 19:37:41;;;;;;;27.42;14.82;;;;;;;5.99;58.28;100200.53;7710909;32;40916;-87